sensor_id;sensor_type;location;lat;lon;timestamp;P1;durP1;ratioP1;P2;durP2;ratioP2
801;SDS011;383;48.766;9.270;2023-04-25T00:00:14;5.07;;;3.10;;
801;SDS011;383;48.766;9.270;2023-04-25T00:02:41;4.60;;;2.83;;
801;SDS011;383;48.766;9.270;2023-04-25T00:05:08;8.65;;;4.07;;
801;SDS011;383;48.766;9.270;2023-04-25T00:07:35;10.52;;;3.75;;
801;SDS011;383;48.766;9.270;2023-04-25T00:10:02;9.82;;;4.05;;
801;SDS011;383;48.766;9.270;2023-04-25T00:12:29;8.55;;;4.18;;
801;SDS011;383;48.766;9.270;2023-04-25T00:14:58;9.13;;;3.13;;
801;SDS011;383;48.766;9.270;2023-04-25T00:17:26;5.07;;;3.42;;
801;SDS011;383;48.766;9.270;2023-04-25T00:19:53;6.22;;;3.80;;
801;SDS011;383;48.766;9.270;2023-04-25T00:22:20;5.05;;;3.80;;
801;SDS011;383;48.766;9.270;2023-04-25T00:24:46;8.70;;;3.58;;
801;SDS011;383;48.766;9.270;2023-04-25T00:27:13;7.15;;;3.00;;
801;SDS011;383;48.766;9.270;2023-04-25T00:29:40;5.40;;;3.78;;
801;SDS011;383;48.766;9.270;2023-04-25T00:32:07;6.25;;;2.80;;
801;SDS011;383;48.766;9.270;2023-04-25T00:34:35;3.40;;;3.00;;
801;SDS011;383;48.766;9.270;2023-04-25T00:37:02;4.20;;;3.10;;
801;SDS011;383;48.766;9.270;2023-04-25T00:39:28;6.32;;;2.67;;
801;SDS011;383;48.766;9.270;2023-04-25T00:41:55;5.68;;;3.22;;
801;SDS011;383;48.766;9.270;2023-04-25T00:44:22;4.82;;;3.38;;
801;SDS011;383;48.766;9.270;2023-04-25T00:46:51;8.45;;;3.10;;
801;SDS011;383;48.766;9.270;2023-04-25T00:49:19;5.35;;;3.50;;
801;SDS011;383;48.766;9.270;2023-04-25T00:51:47;5.78;;;3.00;;
801;SDS011;383;48.766;9.270;2023-04-25T00:54:14;8.40;;;3.42;;
801;SDS011;383;48.766;9.270;2023-04-25T00:56:42;5.72;;;3.25;;
801;SDS011;383;48.766;9.270;2023-04-25T00:59:10;4.55;;;3.17;;
801;SDS011;383;48.766;9.270;2023-04-25T01:01:38;8.95;;;3.60;;
801;SDS011;383;48.766;9.270;2023-04-25T01:04:05;9.60;;;3.35;;
801;SDS011;383;48.766;9.270;2023-04-25T01:06:32;13.95;;;3.78;;
801;SDS011;383;48.766;9.270;2023-04-25T01:09:00;4.45;;;3.50;;
801;SDS011;383;48.766;9.270;2023-04-25T01:11:29;5.85;;;3.15;;
801;SDS011;383;48.766;9.270;2023-04-25T01:13:56;5.95;;;2.95;;
801;SDS011;383;48.766;9.270;2023-04-25T01:16:23;3.95;;;2.92;;
801;SDS011;383;48.766;9.270;2023-04-25T01:18:50;5.10;;;3.00;;
801;SDS011;383;48.766;9.270;2023-04-25T01:21:19;7.68;;;3.10;;
801;SDS011;383;48.766;9.270;2023-04-25T01:23:46;6.35;;;3.00;;
801;SDS011;383;48.766;9.270;2023-04-25T01:26:13;6.32;;;3.35;;
801;SDS011;383;48.766;9.270;2023-04-25T01:28:40;6.30;;;3.42;;
801;SDS011;383;48.766;9.270;2023-04-25T01:31:07;5.35;;;3.00;;
801;SDS011;383;48.766;9.270;2023-04-25T01:33:33;6.38;;;3.33;;
801;SDS011;383;48.766;9.270;2023-04-25T01:36:00;3.72;;;3.05;;
801;SDS011;383;48.766;9.270;2023-04-25T01:38:28;7.45;;;3.30;;
801;SDS011;383;48.766;9.270;2023-04-25T01:40:55;5.35;;;3.40;;
801;SDS011;383;48.766;9.270;2023-04-25T01:43:22;6.45;;;3.20;;
801;SDS011;383;48.766;9.270;2023-04-25T01:45:49;6.80;;;3.30;;
801;SDS011;383;48.766;9.270;2023-04-25T01:48:16;5.70;;;2.83;;
801;SDS011;383;48.766;9.270;2023-04-25T01:50:43;7.20;;;4.40;;
801;SDS011;383;48.766;9.270;2023-04-25T01:53:10;9.60;;;3.28;;
801;SDS011;383;48.766;9.270;2023-04-25T01:55:40;7.20;;;3.80;;
801;SDS011;383;48.766;9.270;2023-04-25T01:58:07;4.90;;;4.22;;
801;SDS011;383;48.766;9.270;2023-04-25T02:00:37;4.82;;;3.58;;
801;SDS011;383;48.766;9.270;2023-04-25T02:03:04;6.05;;;4.00;;
801;SDS011;383;48.766;9.270;2023-04-25T02:05:33;5.10;;;3.80;;
801;SDS011;383;48.766;9.270;2023-04-25T02:08:01;8.00;;;3.88;;
801;SDS011;383;48.766;9.270;2023-04-25T02:10:28;7.25;;;4.13;;
801;SDS011;383;48.766;9.270;2023-04-25T02:12:56;8.57;;;4.30;;
801;SDS011;383;48.766;9.270;2023-04-25T02:15:23;6.55;;;4.35;;
801;SDS011;383;48.766;9.270;2023-04-25T02:17:49;8.00;;;3.92;;
801;SDS011;383;48.766;9.270;2023-04-25T02:20:17;5.80;;;3.95;;
801;SDS011;383;48.766;9.270;2023-04-25T02:22:44;9.77;;;4.18;;
801;SDS011;383;48.766;9.270;2023-04-25T02:25:11;7.57;;;4.75;;
801;SDS011;383;48.766;9.270;2023-04-25T02:27:38;7.05;;;4.15;;
801;SDS011;383;48.766;9.270;2023-04-25T02:30:07;3.75;;;3.53;;
801;SDS011;383;48.766;9.270;2023-04-25T02:32:34;5.85;;;3.40;;
801;SDS011;383;48.766;9.270;2023-04-25T02:35:01;5.30;;;3.55;;
801;SDS011;383;48.766;9.270;2023-04-25T02:37:28;6.88;;;3.35;;
801;SDS011;383;48.766;9.270;2023-04-25T02:39:55;4.18;;;3.22;;
801;SDS011;383;48.766;9.270;2023-04-25T02:42:22;5.25;;;3.08;;
801;SDS011;383;48.766;9.270;2023-04-25T02:44:48;8.50;;;3.60;;
801;SDS011;383;48.766;9.270;2023-04-25T02:47:16;4.82;;;3.60;;
801;SDS011;383;48.766;9.270;2023-04-25T02:49:43;4.85;;;2.65;;
801;SDS011;383;48.766;9.270;2023-04-25T02:52:10;16.58;;;2.70;;
801;SDS011;383;48.766;9.270;2023-04-25T02:54:37;5.93;;;2.85;;
801;SDS011;383;48.766;9.270;2023-04-25T02:57:04;9.68;;;2.85;;
801;SDS011;383;48.766;9.270;2023-04-25T02:59:31;3.63;;;2.83;;
801;SDS011;383;48.766;9.270;2023-04-25T03:01:58;2.92;;;2.70;;
801;SDS011;383;48.766;9.270;2023-04-25T03:04:26;2.90;;;2.33;;
801;SDS011;383;48.766;9.270;2023-04-25T03:06:52;6.25;;;2.70;;
801;SDS011;383;48.766;9.270;2023-04-25T03:09:20;3.95;;;2.55;;
801;SDS011;383;48.766;9.270;2023-04-25T03:11:46;13.20;;;3.70;;
801;SDS011;383;48.766;9.270;2023-04-25T03:14:13;4.50;;;3.45;;
801;SDS011;383;48.766;9.270;2023-04-25T03:16:40;4.85;;;3.65;;
801;SDS011;383;48.766;9.270;2023-04-25T03:19:07;5.50;;;3.85;;
801;SDS011;383;48.766;9.270;2023-04-25T03:21:35;5.20;;;3.90;;
801;SDS011;383;48.766;9.270;2023-04-25T03:24:02;4.93;;;3.50;;
801;SDS011;383;48.766;9.270;2023-04-25T03:26:30;5.35;;;3.35;;
801;SDS011;383;48.766;9.270;2023-04-25T03:28:57;5.65;;;2.70;;
801;SDS011;383;48.766;9.270;2023-04-25T03:31:23;9.57;;;4.53;;
801;SDS011;383;48.766;9.270;2023-04-25T03:33:50;7.07;;;3.20;;
801;SDS011;383;48.766;9.270;2023-04-25T03:36:17;4.22;;;3.42;;
801;SDS011;383;48.766;9.270;2023-04-25T03:38:45;5.50;;;3.85;;
801;SDS011;383;48.766;9.270;2023-04-25T03:41:13;5.15;;;3.40;;
801;SDS011;383;48.766;9.270;2023-04-25T03:43:40;4.78;;;3.63;;
801;SDS011;383;48.766;9.270;2023-04-25T03:46:06;4.68;;;3.22;;
801;SDS011;383;48.766;9.270;2023-04-25T03:48:33;5.40;;;3.72;;
801;SDS011;383;48.766;9.270;2023-04-25T03:51:00;7.22;;;4.22;;
801;SDS011;383;48.766;9.270;2023-04-25T03:53:26;14.75;;;7.30;;
801;SDS011;383;48.766;9.270;2023-04-25T03:55:54;8.02;;;3.30;;
801;SDS011;383;48.766;9.270;2023-04-25T03:58:21;5.55;;;3.20;;
801;SDS011;383;48.766;9.270;2023-04-25T04:00:49;3.40;;;3.05;;
801;SDS011;383;48.766;9.270;2023-04-25T04:03:16;5.88;;;2.85;;
801;SDS011;383;48.766;9.270;2023-04-25T04:05:42;5.50;;;2.88;;
801;SDS011;383;48.766;9.270;2023-04-25T04:08:10;8.95;;;5.13;;
801;SDS011;383;48.766;9.270;2023-04-25T04:10:36;4.25;;;3.45;;
801;SDS011;383;48.766;9.270;2023-04-25T04:13:04;4.15;;;2.90;;
801;SDS011;383;48.766;9.270;2023-04-25T04:15:31;5.32;;;3.28;;
801;SDS011;383;48.766;9.270;2023-04-25T04:17:58;4.45;;;3.10;;
801;SDS011;383;48.766;9.270;2023-04-25T04:20:27;3.42;;;3.05;;
801;SDS011;383;48.766;9.270;2023-04-25T04:22:54;7.38;;;3.53;;
801;SDS011;383;48.766;9.270;2023-04-25T04:25:21;5.47;;;3.40;;
801;SDS011;383;48.766;9.270;2023-04-25T04:27:49;6.10;;;3.58;;
801;SDS011;383;48.766;9.270;2023-04-25T04:30:20;3.28;;;3.13;;
801;SDS011;383;48.766;9.270;2023-04-25T04:32:48;3.58;;;2.80;;
801;SDS011;383;48.766;9.270;2023-04-25T04:35:15;4.90;;;3.15;;
801;SDS011;383;48.766;9.270;2023-04-25T04:37:42;5.07;;;2.88;;
801;SDS011;383;48.766;9.270;2023-04-25T04:40:10;3.72;;;2.95;;
801;SDS011;383;48.766;9.270;2023-04-25T04:42:40;5.88;;;3.53;;
801;SDS011;383;48.766;9.270;2023-04-25T04:45:07;3.50;;;3.30;;
801;SDS011;383;48.766;9.270;2023-04-25T04:47:36;3.95;;;2.97;;
801;SDS011;383;48.766;9.270;2023-04-25T04:50:04;10.73;;;3.00;;
801;SDS011;383;48.766;9.270;2023-04-25T04:52:33;14.02;;;4.60;;
801;SDS011;383;48.766;9.270;2023-04-25T04:55:00;6.90;;;4.57;;
801;SDS011;383;48.766;9.270;2023-04-25T04:57:27;7.68;;;4.70;;
801;SDS011;383;48.766;9.270;2023-04-25T04:59:54;6.57;;;4.40;;
801;SDS011;383;48.766;9.270;2023-04-25T05:02:21;11.68;;;4.93;;
801;SDS011;383;48.766;9.270;2023-04-25T05:04:49;7.18;;;4.35;;
801;SDS011;383;48.766;9.270;2023-04-25T05:07:16;4.78;;;4.10;;
801;SDS011;383;48.766;9.270;2023-04-25T05:09:43;9.00;;;4.55;;
801;SDS011;383;48.766;9.270;2023-04-25T05:12:10;6.38;;;3.85;;
801;SDS011;383;48.766;9.270;2023-04-25T05:14:37;5.75;;;4.30;;
801;SDS011;383;48.766;9.270;2023-04-25T05:17:03;9.43;;;3.67;;
801;SDS011;383;48.766;9.270;2023-04-25T05:19:33;10.23;;;4.68;;
801;SDS011;383;48.766;9.270;2023-04-25T05:22:01;6.18;;;4.00;;
801;SDS011;383;48.766;9.270;2023-04-25T05:24:28;3.78;;;2.85;;
801;SDS011;383;48.766;9.270;2023-04-25T05:26:55;7.68;;;3.50;;
801;SDS011;383;48.766;9.270;2023-04-25T05:29:22;12.82;;;6.45;;
801;SDS011;383;48.766;9.270;2023-04-25T05:31:49;4.95;;;3.60;;
801;SDS011;383;48.766;9.270;2023-04-25T05:34:15;7.88;;;5.85;;
801;SDS011;383;48.766;9.270;2023-04-25T05:36:42;5.68;;;3.70;;
801;SDS011;383;48.766;9.270;2023-04-25T05:39:10;8.32;;;3.88;;
801;SDS011;383;48.766;9.270;2023-04-25T05:41:38;5.03;;;3.33;;
801;SDS011;383;48.766;9.270;2023-04-25T05:44:05;11.98;;;4.07;;
801;SDS011;383;48.766;9.270;2023-04-25T05:46:32;9.57;;;4.07;;
801;SDS011;383;48.766;9.270;2023-04-25T05:48:59;13.93;;;3.67;;
801;SDS011;383;48.766;9.270;2023-04-25T05:51:25;9.07;;;3.45;;
801;SDS011;383;48.766;9.270;2023-04-25T05:53:52;5.90;;;3.40;;
801;SDS011;383;48.766;9.270;2023-04-25T05:56:20;7.97;;;3.17;;
801;SDS011;383;48.766;9.270;2023-04-25T05:58:47;12.13;;;4.45;;
801;SDS011;383;48.766;9.270;2023-04-25T06:01:13;4.47;;;2.90;;
801;SDS011;383;48.766;9.270;2023-04-25T06:03:40;5.35;;;2.92;;
801;SDS011;383;48.766;9.270;2023-04-25T06:06:08;5.03;;;3.58;;
801;SDS011;383;48.766;9.270;2023-04-25T06:08:34;8.52;;;4.43;;
801;SDS011;383;48.766;9.270;2023-04-25T06:11:02;5.85;;;3.45;;
801;SDS011;383;48.766;9.270;2023-04-25T06:13:30;7.85;;;3.03;;
801;SDS011;383;48.766;9.270;2023-04-25T06:15:57;9.77;;;3.20;;
801;SDS011;383;48.766;9.270;2023-04-25T06:18:24;5.38;;;2.40;;
801;SDS011;383;48.766;9.270;2023-04-25T06:20:50;4.57;;;2.80;;
801;SDS011;383;48.766;9.270;2023-04-25T06:23:17;6.18;;;2.65;;
801;SDS011;383;48.766;9.270;2023-04-25T06:25:44;6.20;;;2.92;;
801;SDS011;383;48.766;9.270;2023-04-25T06:28:10;7.50;;;2.60;;
801;SDS011;383;48.766;9.270;2023-04-25T06:30:38;3.92;;;2.85;;
801;SDS011;383;48.766;9.270;2023-04-25T06:33:05;4.88;;;2.83;;
801;SDS011;383;48.766;9.270;2023-04-25T06:35:33;7.40;;;2.65;;
801;SDS011;383;48.766;9.270;2023-04-25T06:38:00;4.07;;;2.80;;
801;SDS011;383;48.766;9.270;2023-04-25T06:40:26;3.55;;;2.80;;
801;SDS011;383;48.766;9.270;2023-04-25T06:42:53;4.47;;;2.75;;
801;SDS011;383;48.766;9.270;2023-04-25T06:45:20;5.47;;;2.30;;
801;SDS011;383;48.766;9.270;2023-04-25T06:47:48;3.97;;;2.28;;
801;SDS011;383;48.766;9.270;2023-04-25T06:50:15;9.13;;;2.95;;
801;SDS011;383;48.766;9.270;2023-04-25T06:52:41;4.50;;;2.92;;
801;SDS011;383;48.766;9.270;2023-04-25T06:55:08;4.40;;;2.25;;
801;SDS011;383;48.766;9.270;2023-04-25T06:57:35;2.78;;;2.42;;
801;SDS011;383;48.766;9.270;2023-04-25T07:00:02;3.55;;;2.40;;
801;SDS011;383;48.766;9.270;2023-04-25T07:02:33;5.95;;;2.67;;
801;SDS011;383;48.766;9.270;2023-04-25T07:05:01;4.63;;;2.92;;
801;SDS011;383;48.766;9.270;2023-04-25T07:07:29;3.75;;;2.35;;
801;SDS011;383;48.766;9.270;2023-04-25T07:09:55;7.28;;;2.88;;
801;SDS011;383;48.766;9.270;2023-04-25T07:12:22;4.25;;;2.85;;
801;SDS011;383;48.766;9.270;2023-04-25T07:14:49;4.55;;;2.80;;
801;SDS011;383;48.766;9.270;2023-04-25T07:17:16;4.50;;;2.58;;
801;SDS011;383;48.766;9.270;2023-04-25T07:19:42;4.75;;;2.80;;
801;SDS011;383;48.766;9.270;2023-04-25T07:22:11;3.47;;;2.63;;
801;SDS011;383;48.766;9.270;2023-04-25T07:24:37;7.68;;;2.83;;
801;SDS011;383;48.766;9.270;2023-04-25T07:27:05;6.43;;;3.50;;
801;SDS011;383;48.766;9.270;2023-04-25T07:29:31;5.30;;;3.22;;
801;SDS011;383;48.766;9.270;2023-04-25T07:32:02;4.82;;;2.63;;
801;SDS011;383;48.766;9.270;2023-04-25T07:34:28;8.63;;;3.50;;
801;SDS011;383;48.766;9.270;2023-04-25T07:36:55;5.38;;;3.05;;
801;SDS011;383;48.766;9.270;2023-04-25T07:39:25;5.00;;;3.50;;
801;SDS011;383;48.766;9.270;2023-04-25T07:41:52;10.10;;;4.30;;
801;SDS011;383;48.766;9.270;2023-04-25T07:44:19;4.80;;;3.60;;
801;SDS011;383;48.766;9.270;2023-04-25T07:46:45;5.90;;;3.75;;
801;SDS011;383;48.766;9.270;2023-04-25T07:49:12;6.18;;;3.72;;
801;SDS011;383;48.766;9.270;2023-04-25T07:51:39;4.75;;;3.63;;
801;SDS011;383;48.766;9.270;2023-04-25T07:54:06;8.10;;;3.67;;
801;SDS011;383;48.766;9.270;2023-04-25T07:56:34;5.60;;;3.97;;
801;SDS011;383;48.766;9.270;2023-04-25T07:59:01;9.10;;;3.17;;
801;SDS011;383;48.766;9.270;2023-04-25T08:01:27;5.43;;;3.63;;
801;SDS011;383;48.766;9.270;2023-04-25T08:03:54;6.63;;;4.05;;
801;SDS011;383;48.766;9.270;2023-04-25T08:06:21;7.57;;;3.90;;
801;SDS011;383;48.766;9.270;2023-04-25T08:08:48;9.93;;;5.00;;
801;SDS011;383;48.766;9.270;2023-04-25T08:11:14;16.15;;;5.13;;
801;SDS011;383;48.766;9.270;2023-04-25T08:13:42;8.63;;;4.78;;
801;SDS011;383;48.766;9.270;2023-04-25T08:16:09;10.93;;;5.18;;
801;SDS011;383;48.766;9.270;2023-04-25T08:18:36;7.38;;;4.93;;
801;SDS011;383;48.766;9.270;2023-04-25T08:21:02;10.18;;;6.20;;
801;SDS011;383;48.766;9.270;2023-04-25T08:23:29;9.18;;;5.63;;
801;SDS011;383;48.766;9.270;2023-04-25T08:25:56;15.30;;;5.03;;
801;SDS011;383;48.766;9.270;2023-04-25T08:28:23;7.68;;;4.50;;
801;SDS011;383;48.766;9.270;2023-04-25T08:30:51;7.30;;;4.93;;
801;SDS011;383;48.766;9.270;2023-04-25T08:33:18;7.38;;;4.80;;
801;SDS011;383;48.766;9.270;2023-04-25T08:35:44;9.10;;;5.40;;
801;SDS011;383;48.766;9.270;2023-04-25T08:38:11;6.70;;;4.80;;
801;SDS011;383;48.766;9.270;2023-04-25T08:40:38;9.07;;;4.68;;
801;SDS011;383;48.766;9.270;2023-04-25T08:43:05;9.63;;;5.25;;
801;SDS011;383;48.766;9.270;2023-04-25T08:45:36;10.82;;;5.18;;
801;SDS011;383;48.766;9.270;2023-04-25T08:48:06;8.02;;;5.20;;
801;SDS011;383;48.766;9.270;2023-04-25T08:50:35;7.88;;;5.20;;
801;SDS011;383;48.766;9.270;2023-04-25T08:53:03;12.18;;;5.50;;
801;SDS011;383;48.766;9.270;2023-04-25T08:55:34;7.63;;;5.00;;
801;SDS011;383;48.766;9.270;2023-04-25T08:58:03;13.13;;;5.60;;
801;SDS011;383;48.766;9.270;2023-04-25T09:00:31;7.68;;;5.05;;
801;SDS011;383;48.766;9.270;2023-04-25T09:02:58;8.77;;;5.22;;
801;SDS011;383;48.766;9.270;2023-04-25T09:05:26;6.70;;;4.63;;
801;SDS011;383;48.766;9.270;2023-04-25T09:07:54;6.85;;;4.07;;
801;SDS011;383;48.766;9.270;2023-04-25T09:10:23;7.97;;;4.88;;
801;SDS011;383;48.766;9.270;2023-04-25T09:13:01;7.80;;;5.15;;
801;SDS011;383;48.766;9.270;2023-04-25T09:15:29;8.80;;;4.65;;
801;SDS011;383;48.766;9.270;2023-04-25T09:17:57;7.20;;;4.45;;
801;SDS011;383;48.766;9.270;2023-04-25T09:20:24;8.98;;;5.07;;
801;SDS011;383;48.766;9.270;2023-04-25T09:23:01;12.32;;;5.75;;
801;SDS011;383;48.766;9.270;2023-04-25T09:25:33;19.05;;;6.35;;
801;SDS011;383;48.766;9.270;2023-04-25T09:28:03;8.85;;;5.07;;
801;SDS011;383;48.766;9.270;2023-04-25T09:30:31;7.82;;;5.45;;
801;SDS011;383;48.766;9.270;2023-04-25T09:33:03;10.40;;;6.03;;
801;SDS011;383;48.766;9.270;2023-04-25T09:35:35;11.13;;;6.45;;
801;SDS011;383;48.766;9.270;2023-04-25T09:38:08;9.65;;;5.97;;
801;SDS011;383;48.766;9.270;2023-04-25T09:40:38;8.77;;;6.00;;
801;SDS011;383;48.766;9.270;2023-04-25T09:43:08;7.25;;;4.90;;
801;SDS011;383;48.766;9.270;2023-04-25T09:45:40;12.75;;;6.68;;
801;SDS011;383;48.766;9.270;2023-04-25T09:48:10;8.13;;;5.97;;
801;SDS011;383;48.766;9.270;2023-04-25T09:50:38;13.50;;;6.65;;
801;SDS011;383;48.766;9.270;2023-04-25T09:53:05;9.40;;;5.28;;
801;SDS011;383;48.766;9.270;2023-04-25T09:55:33;8.93;;;5.53;;
801;SDS011;383;48.766;9.270;2023-04-25T09:58:05;10.23;;;5.22;;
801;SDS011;383;48.766;9.270;2023-04-25T10:00:32;6.65;;;4.43;;
801;SDS011;383;48.766;9.270;2023-04-25T10:03:00;12.73;;;5.60;;
801;SDS011;383;48.766;9.270;2023-04-25T10:05:30;10.13;;;6.18;;
801;SDS011;383;48.766;9.270;2023-04-25T10:07:58;9.82;;;5.60;;
801;SDS011;383;48.766;9.270;2023-04-25T10:10:28;6.85;;;4.15;;
801;SDS011;383;48.766;9.270;2023-04-25T10:13:02;18.92;;;4.40;;
801;SDS011;383;48.766;9.270;2023-04-25T10:15:34;9.80;;;4.45;;
801;SDS011;383;48.766;9.270;2023-04-25T10:18:02;4.80;;;3.63;;
801;SDS011;383;48.766;9.270;2023-04-25T10:20:29;5.18;;;3.85;;
801;SDS011;383;48.766;9.270;2023-04-25T10:22:57;5.30;;;3.88;;
801;SDS011;383;48.766;9.270;2023-04-25T10:25:29;6.35;;;4.30;;
801;SDS011;383;48.766;9.270;2023-04-25T10:27:57;6.97;;;4.03;;
801;SDS011;383;48.766;9.270;2023-04-25T10:30:27;4.40;;;3.85;;
801;SDS011;383;48.766;9.270;2023-04-25T10:32:54;6.05;;;4.05;;
801;SDS011;383;48.766;9.270;2023-04-25T10:35:24;13.20;;;4.95;;
801;SDS011;383;48.766;9.270;2023-04-25T10:37:58;5.60;;;3.80;;
801;SDS011;383;48.766;9.270;2023-04-25T10:40:31;4.60;;;3.70;;
801;SDS011;383;48.766;9.270;2023-04-25T10:46:03;3.85;;;3.30;;
801;SDS011;383;48.766;9.270;2023-04-25T10:48:43;4.50;;;3.45;;
801;SDS011;383;48.766;9.270;2023-04-25T10:51:16;4.75;;;3.33;;
801;SDS011;383;48.766;9.270;2023-04-25T10:53:44;6.40;;;3.63;;
801;SDS011;383;48.766;9.270;2023-04-25T10:56:11;6.65;;;3.90;;
801;SDS011;383;48.766;9.270;2023-04-25T10:58:43;7.00;;;4.30;;
801;SDS011;383;48.766;9.270;2023-04-25T11:01:11;6.93;;;3.88;;
801;SDS011;383;48.766;9.270;2023-04-25T11:03:40;6.85;;;3.72;;
801;SDS011;383;48.766;9.270;2023-04-25T11:06:10;6.68;;;3.75;;
801;SDS011;383;48.766;9.270;2023-04-25T11:08:47;4.80;;;3.45;;
801;SDS011;383;48.766;9.270;2023-04-25T11:11:15;6.65;;;4.40;;
801;SDS011;383;48.766;9.270;2023-04-25T11:13:42;7.40;;;4.28;;
801;SDS011;383;48.766;9.270;2023-04-25T11:16:09;9.32;;;4.55;;
801;SDS011;383;48.766;9.270;2023-04-25T11:18:37;7.07;;;4.18;;
801;SDS011;383;48.766;9.270;2023-04-25T11:21:03;4.95;;;3.70;;
801;SDS011;383;48.766;9.270;2023-04-25T11:23:31;4.70;;;3.40;;
801;SDS011;383;48.766;9.270;2023-04-25T11:25:58;4.63;;;3.78;;
801;SDS011;383;48.766;9.270;2023-04-25T11:28:26;4.93;;;3.45;;
801;SDS011;383;48.766;9.270;2023-04-25T11:30:52;4.60;;;3.17;;
801;SDS011;383;48.766;9.270;2023-04-25T11:33:22;6.22;;;3.10;;
801;SDS011;383;48.766;9.270;2023-04-25T11:35:51;3.58;;;2.75;;
801;SDS011;383;48.766;9.270;2023-04-25T11:38:19;4.20;;;2.60;;
801;SDS011;383;48.766;9.270;2023-04-25T11:40:49;1.80;;;1.75;;
801;SDS011;383;48.766;9.270;2023-04-25T11:43:16;5.25;;;2.97;;
801;SDS011;383;48.766;9.270;2023-04-25T11:45:45;3.85;;;2.92;;
801;SDS011;383;48.766;9.270;2023-04-25T11:48:12;3.97;;;3.15;;
801;SDS011;383;48.766;9.270;2023-04-25T11:50:39;3.83;;;3.15;;
801;SDS011;383;48.766;9.270;2023-04-25T11:53:07;5.20;;;3.35;;
801;SDS011;383;48.766;9.270;2023-04-25T11:55:35;4.60;;;3.30;;
801;SDS011;383;48.766;9.270;2023-04-25T11:58:02;3.65;;;2.50;;
801;SDS011;383;48.766;9.270;2023-04-25T12:00:30;3.67;;;2.40;;
801;SDS011;383;48.766;9.270;2023-04-25T12:02:57;5.07;;;3.35;;
801;SDS011;383;48.766;9.270;2023-04-25T12:05:25;3.50;;;2.60;;
801;SDS011;383;48.766;9.270;2023-04-25T12:07:53;4.07;;;3.08;;
801;SDS011;383;48.766;9.270;2023-04-25T12:10:21;3.72;;;2.90;;
801;SDS011;383;48.766;9.270;2023-04-25T12:12:50;4.05;;;2.92;;
801;SDS011;383;48.766;9.270;2023-04-25T12:15:18;3.05;;;2.50;;
801;SDS011;383;48.766;9.270;2023-04-25T12:17:50;5.20;;;3.65;;
801;SDS011;383;48.766;9.270;2023-04-25T12:20:17;8.82;;;4.88;;
801;SDS011;383;48.766;9.270;2023-04-25T12:22:46;3.70;;;2.72;;
801;SDS011;383;48.766;9.270;2023-04-25T12:25:17;5.95;;;4.15;;
801;SDS011;383;48.766;9.270;2023-04-25T12:28:09;6.28;;;4.30;;
801;SDS011;383;48.766;9.270;2023-04-25T12:30:51;7.45;;;4.65;;
801;SDS011;383;48.766;9.270;2023-04-25T12:33:22;7.53;;;4.55;;
801;SDS011;383;48.766;9.270;2023-04-25T12:35:49;7.13;;;5.00;;
801;SDS011;383;48.766;9.270;2023-04-25T12:38:23;7.30;;;4.63;;
801;SDS011;383;48.766;9.270;2023-04-25T12:40:52;10.55;;;5.95;;
801;SDS011;383;48.766;9.270;2023-04-25T12:43:19;9.65;;;5.50;;
801;SDS011;383;48.766;9.270;2023-04-25T12:45:47;13.25;;;5.13;;
801;SDS011;383;48.766;9.270;2023-04-25T12:48:15;10.45;;;5.35;;
801;SDS011;383;48.766;9.270;2023-04-25T12:50:42;7.72;;;5.25;;
801;SDS011;383;48.766;9.270;2023-04-25T12:53:09;9.65;;;4.88;;
801;SDS011;383;48.766;9.270;2023-04-25T12:55:36;11.00;;;5.80;;
801;SDS011;383;48.766;9.270;2023-04-25T12:58:04;14.00;;;6.40;;
801;SDS011;383;48.766;9.270;2023-04-25T13:00:31;8.90;;;6.30;;
801;SDS011;383;48.766;9.270;2023-04-25T13:02:58;7.55;;;5.10;;
801;SDS011;383;48.766;9.270;2023-04-25T13:05:24;13.10;;;6.10;;
801;SDS011;383;48.766;9.270;2023-04-25T13:07:51;19.08;;;6.78;;
801;SDS011;383;48.766;9.270;2023-04-25T13:10:18;9.07;;;5.68;;
801;SDS011;383;48.766;9.270;2023-04-25T13:12:45;14.07;;;8.40;;
801;SDS011;383;48.766;9.270;2023-04-25T13:15:13;11.20;;;6.57;;
801;SDS011;383;48.766;9.270;2023-04-25T13:17:40;9.90;;;4.97;;
801;SDS011;383;48.766;9.270;2023-04-25T13:20:08;17.20;;;6.20;;
801;SDS011;383;48.766;9.270;2023-04-25T13:22:35;10.75;;;5.57;;
801;SDS011;383;48.766;9.270;2023-04-25T13:25:03;13.52;;;6.72;;
801;SDS011;383;48.766;9.270;2023-04-25T13:27:30;12.00;;;6.63;;
801;SDS011;383;48.766;9.270;2023-04-25T13:29:58;12.30;;;6.67;;
801;SDS011;383;48.766;9.270;2023-04-25T13:32:27;12.37;;;7.03;;
801;SDS011;383;48.766;9.270;2023-04-25T13:34:54;11.33;;;7.00;;
801;SDS011;383;48.766;9.270;2023-04-25T13:37:20;11.17;;;5.47;;
801;SDS011;383;48.766;9.270;2023-04-25T13:39:49;10.17;;;5.70;;
801;SDS011;383;48.766;9.270;2023-04-25T13:42:15;12.00;;;5.93;;
801;SDS011;383;48.766;9.270;2023-04-25T13:44:42;11.27;;;6.93;;
801;SDS011;383;48.766;9.270;2023-04-25T13:47:09;14.47;;;8.27;;
801;SDS011;383;48.766;9.270;2023-04-25T13:49:38;12.83;;;6.60;;
801;SDS011;383;48.766;9.270;2023-04-25T13:52:04;10.83;;;6.50;;
801;SDS011;383;48.766;9.270;2023-04-25T13:54:31;9.67;;;5.43;;
801;SDS011;383;48.766;9.270;2023-04-25T13:56:58;12.37;;;6.10;;
801;SDS011;383;48.766;9.270;2023-04-25T13:59:25;11.33;;;5.80;;
801;SDS011;383;48.766;9.270;2023-04-25T14:01:51;8.63;;;5.53;;
801;SDS011;383;48.766;9.270;2023-04-25T14:04:18;15.57;;;6.93;;
801;SDS011;383;48.766;9.270;2023-04-25T14:06:46;17.17;;;8.80;;
801;SDS011;383;48.766;9.270;2023-04-25T14:09:13;11.47;;;6.80;;
801;SDS011;383;48.766;9.270;2023-04-25T14:11:40;12.20;;;7.40;;
801;SDS011;383;48.766;9.270;2023-04-25T14:14:07;12.60;;;7.90;;
801;SDS011;383;48.766;9.270;2023-04-25T14:16:34;12.53;;;8.07;;
801;SDS011;383;48.766;9.270;2023-04-25T14:19:00;12.90;;;8.17;;
801;SDS011;383;48.766;9.270;2023-04-25T14:21:28;14.67;;;8.40;;
801;SDS011;383;48.766;9.270;2023-04-25T14:23:58;9.47;;;7.00;;
801;SDS011;383;48.766;9.270;2023-04-25T14:26:25;12.33;;;7.63;;
801;SDS011;383;48.766;9.270;2023-04-25T14:28:51;16.87;;;8.60;;
801;SDS011;383;48.766;9.270;2023-04-25T14:31:18;14.10;;;8.20;;
801;SDS011;383;48.766;9.270;2023-04-25T14:33:45;18.00;;;8.70;;
801;SDS011;383;48.766;9.270;2023-04-25T14:36:12;13.50;;;7.57;;
801;SDS011;383;48.766;9.270;2023-04-25T14:38:39;12.33;;;7.10;;
801;SDS011;383;48.766;9.270;2023-04-25T14:41:07;11.50;;;7.87;;
801;SDS011;383;48.766;9.270;2023-04-25T14:43:34;10.90;;;7.60;;
801;SDS011;383;48.766;9.270;2023-04-25T14:46:01;10.40;;;7.37;;
801;SDS011;383;48.766;9.270;2023-04-25T14:48:28;10.33;;;6.80;;
801;SDS011;383;48.766;9.270;2023-04-25T14:50:55;8.67;;;5.93;;
801;SDS011;383;48.766;9.270;2023-04-25T14:53:22;8.70;;;6.20;;
801;SDS011;383;48.766;9.270;2023-04-25T14:55:49;11.60;;;6.97;;
801;SDS011;383;48.766;9.270;2023-04-25T14:58:17;7.77;;;6.00;;
801;SDS011;383;48.766;9.270;2023-04-25T15:00:44;7.53;;;5.10;;
801;SDS011;383;48.766;9.270;2023-04-25T15:03:11;9.97;;;6.27;;
801;SDS011;383;48.766;9.270;2023-04-25T15:05:39;8.00;;;5.90;;
801;SDS011;383;48.766;9.270;2023-04-25T15:08:06;8.67;;;6.00;;
801;SDS011;383;48.766;9.270;2023-04-25T15:10:32;7.63;;;5.33;;
801;SDS011;383;48.766;9.270;2023-04-25T15:12:59;9.87;;;4.67;;
801;SDS011;383;48.766;9.270;2023-04-25T15:15:28;6.50;;;4.73;;
801;SDS011;383;48.766;9.270;2023-04-25T15:17:54;11.43;;;5.00;;
801;SDS011;383;48.766;9.270;2023-04-25T15:20:21;5.80;;;4.00;;
801;SDS011;383;48.766;9.270;2023-04-25T15:22:49;8.60;;;5.10;;
801;SDS011;383;48.766;9.270;2023-04-25T15:25:16;10.47;;;6.13;;
801;SDS011;383;48.766;9.270;2023-04-25T15:27:43;8.10;;;4.83;;
801;SDS011;383;48.766;9.270;2023-04-25T15:30:13;7.90;;;5.10;;
801;SDS011;383;48.766;9.270;2023-04-25T15:32:42;13.43;;;5.87;;
801;SDS011;383;48.766;9.270;2023-04-25T15:35:10;9.10;;;5.53;;
801;SDS011;383;48.766;9.270;2023-04-25T15:37:37;12.10;;;6.43;;
801;SDS011;383;48.766;9.270;2023-04-25T15:40:04;13.63;;;6.07;;
801;SDS011;383;48.766;9.270;2023-04-25T15:42:34;10.90;;;5.50;;
801;SDS011;383;48.766;9.270;2023-04-25T15:45:00;13.60;;;5.30;;
801;SDS011;383;48.766;9.270;2023-04-25T15:47:27;8.00;;;4.87;;